This demonstration page uses our WeatherBlox Daily Observations layout. Learn more.

Left ArrowRight Arrow

41.55636, -103.73856

Hourly Observations for November 23, 2019

Temp ( °F °C ) Dew Point ( °F °C ) Humidity (%) Winds ( mph kmh ) Pressure ( in mb ) Visibility ( mi km ) Precip ( " mm )
12:58 am 00:58 Clear 30 -1 20 -6.4 67 67 W 7 11 30.09 1019 10 16.0934 N/A
1:58 am 01:58 Clear 26 -3.2 21 -6.2 80 80 W 10 17 30.12 1020 10 16.0934 N/A
3:58 am 03:58 Clear 27 -2.9 20 -6.7 75 75 W 10 17 30.1 1019 10 16.0934 N/A
6:58 am 06:58 Clear 29 -1.6 21 -6.2 71 71 W 7 11 30.09 1019 10 16.0934 N/A
7:58 am 07:58 Clear 30 -1.3 22 -5.3 75 75 WNW 15 24 30.09 1019 10 16.0934 N/A
8:58 am 08:58 Clear 30 -1 23 -5.1 74 74 WNW 10 17 30.11 1020 10 16.0934 N/A
9:58 am 09:58 Clear 31 -0.8 23 -4.8 75 75 NW 14 22 30.1 1019 10 16.0934 N/A
10:58 am 10:58 Clear 29 -1.6 23 -5.2 77 77 WNW 13 20 30.12 1020 10 16.0934 N/A
11:58 am 11:58 Clear 28 -2.5 21 -6.3 75 75 W 5 7 30.13 1020 10 16.0934 N/A
12:58 pm 12:58 Clear 28 -2.2 20 -6.5 73 73 SW 6 9 30.16 1021 10 16.0934 N/A
1:58 pm 13:58 Sunny 27 -2.7 21 -6.3 77 77 WSW 6 9 30.18 1022 10 16.0934 N/A
2:58 pm 14:58 Sunny 33 0.3 23 -5 68 68 W 7 11 30.17 1022 10 16.0934 N/A
3:58 pm 15:58 Sunny 41 4.8 23 -5.2 49 49 WNW 15 24 30.15 1021 10 16.0934 N/A
4:58 pm 16:58 Sunny 46 7.8 20 -6.9 35 35 NW 23 37 30.13 1020 10 16.0934 N/A
5:58 pm 17:58 Sunny 50 9.8 19 -7.1 30 30 NW 24 39 30.1 1019 10 16.0934 N/A
6:58 pm 18:58 Sunny 53 11.4 18 -7.9 25 25 NW 28 44 30.04 1017 10 16.0934 N/A
7:58 pm 19:58 Sunny 52 11 19 -7.5 27 27 NW 26 43 30.04 1017 10 16.0934 N/A
8:58 pm 20:58 Sunny 52 11 18 -7.7 26 26 NW 29 46 30.04 1017 10 16.0934 N/A
9:58 pm 21:58 Sunny 51 10.4 19 -7.4 28 28 NW 23 37 30.04 1017 10 16.0934 N/A
10:58 pm 22:58 Sunny 48 8.8 19 -7.5 31 31 WNW 9 15 30.05 1018 10 16.0934 N/A
11:58 pm 23:58 Clear 41 5.2 20 -6.8 42 42 SW 5 7 30.08 1019 10 16.0934 N/A

Powered by AerisWeather